sensor_id;sensor_type;location;lat;lon;timestamp;temperature;humidity
10270;DHT22;5180;50.832;5.390;2022-07-22T00:02:18;17.10;99.90
10270;DHT22;5180;50.832;5.390;2022-07-22T00:04:43;17.10;99.90
10270;DHT22;5180;50.832;5.390;2022-07-22T00:07:09;17.20;99.90
10270;DHT22;5180;50.832;5.390;2022-07-22T00:09:35;17.20;99.90
10270;DHT22;5180;50.832;5.390;2022-07-22T00:12:00;17.20;99.90
10270;DHT22;5180;50.832;5.390;2022-07-22T00:14:26;17.20;99.90
10270;DHT22;5180;50.832;5.390;2022-07-22T00:16:52;17.20;99.90
10270;DHT22;5180;50.832;5.390;2022-07-22T00:19:17;17.20;99.90
10270;DHT22;5180;50.832;5.390;2022-07-22T00:21:43;17.20;99.90
10270;DHT22;5180;50.832;5.390;2022-07-22T00:24:08;17.20;99.90
10270;DHT22;5180;50.832;5.390;2022-07-22T00:26:34;17.30;99.90
10270;DHT22;5180;50.832;5.390;2022-07-22T00:29:00;17.30;99.90
10270;DHT22;5180;50.832;5.390;2022-07-22T00:31:26;17.30;99.90
10270;DHT22;5180;50.832;5.390;2022-07-22T00:33:52;17.40;99.90
10270;DHT22;5180;50.832;5.390;2022-07-22T00:36:17;17.50;99.90
10270;DHT22;5180;50.832;5.390;2022-07-22T00:38:43;17.50;99.90
10270;DHT22;5180;50.832;5.390;2022-07-22T00:41:09;17.60;99.90
10270;DHT22;5180;50.832;5.390;2022-07-22T00:43:58;17.60;99.90
10270;DHT22;5180;50.832;5.390;2022-07-22T00:46:25;17.50;99.90
10270;DHT22;5180;50.832;5.390;2022-07-22T00:48:52;17.50;99.90
10270;DHT22;5180;50.832;5.390;2022-07-22T00:51:19;17.50;99.90
10270;DHT22;5180;50.832;5.390;2022-07-22T00:53:46;17.50;99.90
10270;DHT22;5180;50.832;5.390;2022-07-22T00:56:12;17.50;99.90
10270;DHT22;5180;50.832;5.390;2022-07-22T00:58:39;17.50;99.90
10270;DHT22;5180;50.832;5.390;2022-07-22T01:01:06;17.40;99.90
10270;DHT22;5180;50.832;5.390;2022-07-22T01:03:31;17.30;99.90
10270;DHT22;5180;50.832;5.390;2022-07-22T01:05:57;17.20;99.90
10270;DHT22;5180;50.832;5.390;2022-07-22T01:08:23;17.10;99.90
10270;DHT22;5180;50.832;5.390;2022-07-22T01:10:49;17.00;99.90
10270;DHT22;5180;50.832;5.390;2022-07-22T01:13:15;16.90;99.90
10270;DHT22;5180;50.832;5.390;2022-07-22T01:15:41;16.80;99.90
10270;DHT22;5180;50.832;5.390;2022-07-22T01:18:06;16.70;99.90
10270;DHT22;5180;50.832;5.390;2022-07-22T01:20:32;16.70;99.90
10270;DHT22;5180;50.832;5.390;2022-07-22T01:22:59;16.60;99.90
10270;DHT22;5180;50.832;5.390;2022-07-22T01:25:24;16.60;99.90
10270;DHT22;5180;50.832;5.390;2022-07-22T01:27:50;16.50;99.90
10270;DHT22;5180;50.832;5.390;2022-07-22T01:30:17;16.50;99.90
10270;DHT22;5180;50.832;5.390;2022-07-22T01:32:42;16.40;99.90
10270;DHT22;5180;50.832;5.390;2022-07-22T01:35:08;16.40;99.90
10270;DHT22;5180;50.832;5.390;2022-07-22T01:37:34;16.40;99.90
10270;DHT22;5180;50.832;5.390;2022-07-22T01:40:00;16.30;99.90
10270;DHT22;5180;50.832;5.390;2022-07-22T01:42:25;16.30;99.90
10270;DHT22;5180;50.832;5.390;2022-07-22T01:44:51;16.30;99.90
10270;DHT22;5180;50.832;5.390;2022-07-22T01:47:17;16.20;99.90
10270;DHT22;5180;50.832;5.390;2022-07-22T01:49:43;16.20;99.90
10270;DHT22;5180;50.832;5.390;2022-07-22T01:52:09;16.20;99.90
10270;DHT22;5180;50.832;5.390;2022-07-22T01:54:35;16.10;99.90
10270;DHT22;5180;50.832;5.390;2022-07-22T01:57:01;16.20;99.90
10270;DHT22;5180;50.832;5.390;2022-07-22T01:59:26;16.20;99.90
10270;DHT22;5180;50.832;5.390;2022-07-22T02:01:52;16.10;99.90
10270;DHT22;5180;50.832;5.390;2022-07-22T02:04:18;16.10;99.90
10270;DHT22;5180;50.832;5.390;2022-07-22T02:06:43;16.00;99.90
10270;DHT22;5180;50.832;5.390;2022-07-22T02:09:09;16.00;99.90
10270;DHT22;5180;50.832;5.390;2022-07-22T02:11:35;16.00;99.90
10270;DHT22;5180;50.832;5.390;2022-07-22T02:14:01;15.90;99.90
10270;DHT22;5180;50.832;5.390;2022-07-22T02:16:27;15.90;99.90
10270;DHT22;5180;50.832;5.390;2022-07-22T02:18:52;15.90;99.90
10270;DHT22;5180;50.832;5.390;2022-07-22T02:21:18;15.80;99.90
10270;DHT22;5180;50.832;5.390;2022-07-22T02:23:44;15.80;99.90
10270;DHT22;5180;50.832;5.390;2022-07-22T02:26:10;15.80;99.90
10270;DHT22;5180;50.832;5.390;2022-07-22T02:28:35;15.70;99.90
10270;DHT22;5180;50.832;5.390;2022-07-22T02:31:01;15.70;99.90
10270;DHT22;5180;50.832;5.390;2022-07-22T02:33:27;15.70;99.90
10270;DHT22;5180;50.832;5.390;2022-07-22T02:35:55;15.70;99.90
10270;DHT22;5180;50.832;5.390;2022-07-22T02:38:21;15.70;99.90
10270;DHT22;5180;50.832;5.390;2022-07-22T02:40:46;15.80;99.90
10270;DHT22;5180;50.832;5.390;2022-07-22T02:43:12;15.70;99.90
10270;DHT22;5180;50.832;5.390;2022-07-22T02:45:38;15.80;99.90
10270;DHT22;5180;50.832;5.390;2022-07-22T02:48:04;15.80;99.90
10270;DHT22;5180;50.832;5.390;2022-07-22T02:50:30;15.80;99.90
10270;DHT22;5180;50.832;5.390;2022-07-22T02:52:58;15.80;99.90
10270;DHT22;5180;50.832;5.390;2022-07-22T02:55:23;15.80;99.90
10270;DHT22;5180;50.832;5.390;2022-07-22T02:57:49;15.70;99.90
10270;DHT22;5180;50.832;5.390;2022-07-22T03:00:15;15.70;99.90
10270;DHT22;5180;50.832;5.390;2022-07-22T03:02:41;15.70;99.90
10270;DHT22;5180;50.832;5.390;2022-07-22T03:05:07;15.80;99.90
10270;DHT22;5180;50.832;5.390;2022-07-22T03:07:33;15.80;99.90
10270;DHT22;5180;50.832;5.390;2022-07-22T03:09:59;15.80;99.90
10270;DHT22;5180;50.832;5.390;2022-07-22T03:12:25;15.90;99.90
10270;DHT22;5180;50.832;5.390;2022-07-22T03:14:50;15.90;99.90
10270;DHT22;5180;50.832;5.390;2022-07-22T03:17:16;15.90;99.90
10270;DHT22;5180;50.832;5.390;2022-07-22T03:19:41;15.90;99.90
10270;DHT22;5180;50.832;5.390;2022-07-22T03:22:07;16.00;99.90
10270;DHT22;5180;50.832;5.390;2022-07-22T03:24:33;16.00;99.90
10270;DHT22;5180;50.832;5.390;2022-07-22T03:26:59;16.00;99.90
10270;DHT22;5180;50.832;5.390;2022-07-22T03:29:24;16.00;99.90
10270;DHT22;5180;50.832;5.390;2022-07-22T03:31:50;16.00;99.90
10270;DHT22;5180;50.832;5.390;2022-07-22T03:34:16;15.90;99.90
10270;DHT22;5180;50.832;5.390;2022-07-22T03:36:41;15.90;99.90
10270;DHT22;5180;50.832;5.390;2022-07-22T03:39:07;15.90;99.90
10270;DHT22;5180;50.832;5.390;2022-07-22T03:41:33;15.90;99.90
10270;DHT22;5180;50.832;5.390;2022-07-22T03:43:58;15.90;99.90
10270;DHT22;5180;50.832;5.390;2022-07-22T03:46:24;15.90;99.90
10270;DHT22;5180;50.832;5.390;2022-07-22T03:48:49;16.00;99.90
10270;DHT22;5180;50.832;5.390;2022-07-22T03:51:15;16.00;99.90
10270;DHT22;5180;50.832;5.390;2022-07-22T03:53:40;16.10;99.90
10270;DHT22;5180;50.832;5.390;2022-07-22T03:56:07;16.10;99.90
10270;DHT22;5180;50.832;5.390;2022-07-22T03:58:32;16.20;99.90
10270;DHT22;5180;50.832;5.390;2022-07-22T04:00:58;16.20;99.90
10270;DHT22;5180;50.832;5.390;2022-07-22T04:03:24;16.20;99.90
10270;DHT22;5180;50.832;5.390;2022-07-22T04:05:49;16.20;99.90
10270;DHT22;5180;50.832;5.390;2022-07-22T04:08:16;16.30;99.90
10270;DHT22;5180;50.832;5.390;2022-07-22T04:10:43;16.30;99.90
10270;DHT22;5180;50.832;5.390;2022-07-22T04:13:09;16.30;99.90
10270;DHT22;5180;50.832;5.390;2022-07-22T04:15:34;16.30;99.90
10270;DHT22;5180;50.832;5.390;2022-07-22T04:18:00;16.40;99.90
10270;DHT22;5180;50.832;5.390;2022-07-22T04:20:26;16.40;99.90
10270;DHT22;5180;50.832;5.390;2022-07-22T04:22:52;16.40;99.90
10270;DHT22;5180;50.832;5.390;2022-07-22T04:25:17;16.50;99.90
10270;DHT22;5180;50.832;5.390;2022-07-22T04:27:43;16.60;99.90
10270;DHT22;5180;50.832;5.390;2022-07-22T04:30:09;16.70;99.90
10270;DHT22;5180;50.832;5.390;2022-07-22T04:32:35;16.70;99.90
10270;DHT22;5180;50.832;5.390;2022-07-22T04:35:01;16.80;99.90
10270;DHT22;5180;50.832;5.390;2022-07-22T04:37:27;16.80;99.90
10270;DHT22;5180;50.832;5.390;2022-07-22T04:39:52;16.90;99.90
10270;DHT22;5180;50.832;5.390;2022-07-22T04:42:18;17.00;99.90
10270;DHT22;5180;50.832;5.390;2022-07-22T04:44:44;17.10;99.90
10270;DHT22;5180;50.832;5.390;2022-07-22T04:47:10;17.20;99.90
10270;DHT22;5180;50.832;5.390;2022-07-22T04:49:36;17.20;99.90
10270;DHT22;5180;50.832;5.390;2022-07-22T04:52:02;17.30;99.90
10270;DHT22;5180;50.832;5.390;2022-07-22T04:54:28;17.30;99.90
10270;DHT22;5180;50.832;5.390;2022-07-22T04:56:53;17.40;99.90
10270;DHT22;5180;50.832;5.390;2022-07-22T04:59:19;17.40;99.90
10270;DHT22;5180;50.832;5.390;2022-07-22T05:01:44;17.50;99.90
10270;DHT22;5180;50.832;5.390;2022-07-22T05:04:10;17.60;99.90
10270;DHT22;5180;50.832;5.390;2022-07-22T05:06:36;17.80;99.90
10270;DHT22;5180;50.832;5.390;2022-07-22T05:09:01;18.00;99.90
10270;DHT22;5180;50.832;5.390;2022-07-22T05:11:27;18.10;99.90
10270;DHT22;5180;50.832;5.390;2022-07-22T05:13:53;18.30;99.90
10270;DHT22;5180;50.832;5.390;2022-07-22T05:16:19;18.40;99.90
10270;DHT22;5180;50.832;5.390;2022-07-22T05:18:44;18.60;99.90
10270;DHT22;5180;50.832;5.390;2022-07-22T05:21:10;18.80;99.90
10270;DHT22;5180;50.832;5.390;2022-07-22T05:23:36;18.90;99.90
10270;DHT22;5180;50.832;5.390;2022-07-22T05:26:03;19.10;99.90
10270;DHT22;5180;50.832;5.390;2022-07-22T05:28:29;19.80;99.90
10270;DHT22;5180;50.832;5.390;2022-07-22T05:30:55;20.90;99.90
10270;DHT22;5180;50.832;5.390;2022-07-22T05:33:20;22.20;99.90
10270;DHT22;5180;50.832;5.390;2022-07-22T05:35:46;23.30;99.90
10270;DHT22;5180;50.832;5.390;2022-07-22T05:38:11;24.40;99.90
10270;DHT22;5180;50.832;5.390;2022-07-22T05:40:37;25.40;99.90
10270;DHT22;5180;50.832;5.390;2022-07-22T05:43:03;26.10;99.90
10270;DHT22;5180;50.832;5.390;2022-07-22T05:45:29;26.20;99.90
10270;DHT22;5180;50.832;5.390;2022-07-22T05:47:54;26.20;99.90
10270;DHT22;5180;50.832;5.390;2022-07-22T05:50:20;26.30;99.90
10270;DHT22;5180;50.832;5.390;2022-07-22T05:52:46;26.70;99.90
10270;DHT22;5180;50.832;5.390;2022-07-22T05:55:11;27.30;99.90
10270;DHT22;5180;50.832;5.390;2022-07-22T05:57:37;27.60;99.90
10270;DHT22;5180;50.832;5.390;2022-07-22T06:00:06;27.40;99.90
10270;DHT22;5180;50.832;5.390;2022-07-22T06:02:32;26.90;99.90
10270;DHT22;5180;50.832;5.390;2022-07-22T06:04:58;26.40;99.90
10270;DHT22;5180;50.832;5.390;2022-07-22T06:07:26;25.80;99.90
10270;DHT22;5180;50.832;5.390;2022-07-22T06:09:51;25.30;99.90
10270;DHT22;5180;50.832;5.390;2022-07-22T06:12:17;25.30;99.90
10270;DHT22;5180;50.832;5.390;2022-07-22T06:14:43;25.10;99.90
10270;DHT22;5180;50.832;5.390;2022-07-22T06:17:09;24.90;99.90
10270;DHT22;5180;50.832;5.390;2022-07-22T06:19:35;24.80;99.90
10270;DHT22;5180;50.832;5.390;2022-07-22T06:22:00;24.70;99.90
10270;DHT22;5180;50.832;5.390;2022-07-22T06:24:26;24.70;99.90
10270;DHT22;5180;50.832;5.390;2022-07-22T06:26:52;24.70;99.90
10270;DHT22;5180;50.832;5.390;2022-07-22T06:29:18;24.80;99.90
10270;DHT22;5180;50.832;5.390;2022-07-22T06:31:43;24.90;99.90
10270;DHT22;5180;50.832;5.390;2022-07-22T06:34:09;24.80;99.90
10270;DHT22;5180;50.832;5.390;2022-07-22T06:36:34;24.80;99.90
10270;DHT22;5180;50.832;5.390;2022-07-22T06:39:00;24.60;99.90
10270;DHT22;5180;50.832;5.390;2022-07-22T06:41:26;24.30;99.90
10270;DHT22;5180;50.832;5.390;2022-07-22T06:43:52;24.30;99.90
10270;DHT22;5180;50.832;5.390;2022-07-22T06:46:17;24.20;99.70
10270;DHT22;5180;50.832;5.390;2022-07-22T06:48:43;24.10;99.70
10270;DHT22;5180;50.832;5.390;2022-07-22T06:51:09;24.70;99.70
10270;DHT22;5180;50.832;5.390;2022-07-22T06:53:35;25.20;98.80
10270;DHT22;5180;50.832;5.390;2022-07-22T06:56:00;24.80;98.50
10270;DHT22;5180;50.832;5.390;2022-07-22T06:58:26;24.30;98.50
10270;DHT22;5180;50.832;5.390;2022-07-22T07:00:52;23.80;98.40
10270;DHT22;5180;50.832;5.390;2022-07-22T07:03:17;23.60;98.70
10270;DHT22;5180;50.832;5.390;2022-07-22T07:05:43;23.60;98.70
10270;DHT22;5180;50.832;5.390;2022-07-22T07:08:09;24.00;98.60
10270;DHT22;5180;50.832;5.390;2022-07-22T07:10:35;24.10;98.20
10270;DHT22;5180;50.832;5.390;2022-07-22T07:13:00;24.80;98.10
10270;DHT22;5180;50.832;5.390;2022-07-22T07:15:26;25.80;97.40
10270;DHT22;5180;50.832;5.390;2022-07-22T07:17:54;25.50;96.90
10270;DHT22;5180;50.832;5.390;2022-07-22T07:20:20;25.00;96.80
10270;DHT22;5180;50.832;5.390;2022-07-22T07:22:45;24.70;97.10
10270;DHT22;5180;50.832;5.390;2022-07-22T07:25:11;25.00;96.90
10270;DHT22;5180;50.832;5.390;2022-07-22T07:27:37;24.80;96.80
10270;DHT22;5180;50.832;5.390;2022-07-22T07:30:06;24.50;96.80
10270;DHT22;5180;50.832;5.390;2022-07-22T07:32:32;24.20;96.80
10270;DHT22;5180;50.832;5.390;2022-07-22T07:34:58;23.90;96.90
10270;DHT22;5180;50.832;5.390;2022-07-22T07:37:23;23.80;97.00
10270;DHT22;5180;50.832;5.390;2022-07-22T07:39:49;24.40;97.10
10270;DHT22;5180;50.832;5.390;2022-07-22T07:42:14;25.30;96.40
10270;DHT22;5180;50.832;5.390;2022-07-22T07:44:40;25.50;96.00
10270;DHT22;5180;50.832;5.390;2022-07-22T07:47:06;25.30;95.80
10270;DHT22;5180;50.832;5.390;2022-07-22T07:49:32;24.90;95.70
10270;DHT22;5180;50.832;5.390;2022-07-22T07:51:57;24.50;95.90
10270;DHT22;5180;50.832;5.390;2022-07-22T07:54:23;24.30;96.00
10270;DHT22;5180;50.832;5.390;2022-07-22T07:56:49;24.00;96.10
10270;DHT22;5180;50.832;5.390;2022-07-22T07:59:14;23.90;96.10
10270;DHT22;5180;50.832;5.390;2022-07-22T08:01:42;23.90;96.10
10270;DHT22;5180;50.832;5.390;2022-07-22T08:04:08;24.00;96.30
10270;DHT22;5180;50.832;5.390;2022-07-22T08:06:34;24.30;96.00
10270;DHT22;5180;50.832;5.390;2022-07-22T08:08:59;24.30;95.70
10270;DHT22;5180;50.832;5.390;2022-07-22T08:11:25;24.20;95.50
10270;DHT22;5180;50.832;5.390;2022-07-22T08:13:51;24.10;95.50
10270;DHT22;5180;50.832;5.390;2022-07-22T08:16:16;24.30;95.50
10270;DHT22;5180;50.832;5.390;2022-07-22T08:18:42;24.80;95.50
10270;DHT22;5180;50.832;5.390;2022-07-22T08:21:08;25.20;95.20
10270;DHT22;5180;50.832;5.390;2022-07-22T08:23:34;25.20;95.00
10270;DHT22;5180;50.832;5.390;2022-07-22T08:26:00;25.20;94.90
10270;DHT22;5180;50.832;5.390;2022-07-22T08:28:25;25.80;94.90
10270;DHT22;5180;50.832;5.390;2022-07-22T08:30:51;26.50;94.50
10270;DHT22;5180;50.832;5.390;2022-07-22T08:33:17;27.20;94.20
10270;DHT22;5180;50.832;5.390;2022-07-22T08:35:43;27.80;93.90
10270;DHT22;5180;50.832;5.390;2022-07-22T08:38:09;28.10;93.40
10270;DHT22;5180;50.832;5.390;2022-07-22T08:40:35;28.60;93.20
10270;DHT22;5180;50.832;5.390;2022-07-22T08:43:01;29.30;92.60
10270;DHT22;5180;50.832;5.390;2022-07-22T08:45:29;29.50;92.40
10270;DHT22;5180;50.832;5.390;2022-07-22T08:47:56;29.90;92.10
10270;DHT22;5180;50.832;5.390;2022-07-22T08:50:22;30.20;91.70
10270;DHT22;5180;50.832;5.390;2022-07-22T08:52:48;30.10;91.10
10270;DHT22;5180;50.832;5.390;2022-07-22T08:55:13;30.00;90.70
10270;DHT22;5180;50.832;5.390;2022-07-22T08:57:47;29.90;90.60
10270;DHT22;5180;50.832;5.390;2022-07-22T09:00:15;29.60;90.00
10270;DHT22;5180;50.832;5.390;2022-07-22T09:02:42;29.50;89.40
10270;DHT22;5180;50.832;5.390;2022-07-22T09:05:10;29.20;89.00
10270;DHT22;5180;50.832;5.390;2022-07-22T09:07:39;29.10;89.60
10270;DHT22;5180;50.832;5.390;2022-07-22T09:10:10;29.10;89.20
10270;DHT22;5180;50.832;5.390;2022-07-22T09:12:57;29.10;88.50
10270;DHT22;5180;50.832;5.390;2022-07-22T09:15:30;29.00;88.50
10270;DHT22;5180;50.832;5.390;2022-07-22T09:17:57;29.10;88.20
10270;DHT22;5180;50.832;5.390;2022-07-22T09:20:23;29.20;88.50
10270;DHT22;5180;50.832;5.390;2022-07-22T09:22:50;29.30;87.60
10270;DHT22;5180;50.832;5.390;2022-07-22T09:27:46;29.10;87.30
10270;DHT22;5180;50.832;5.390;2022-07-22T09:30:25;29.20;86.70
10270;DHT22;5180;50.832;5.390;2022-07-22T09:32:53;29.10;86.00
10270;DHT22;5180;50.832;5.390;2022-07-22T09:35:20;29.00;86.80
10270;DHT22;5180;50.832;5.390;2022-07-22T09:37:49;29.40;86.30
10270;DHT22;5180;50.832;5.390;2022-07-22T09:40:17;29.50;85.40
10270;DHT22;5180;50.832;5.390;2022-07-22T09:42:45;29.10;85.30
10270;DHT22;5180;50.832;5.390;2022-07-22T09:45:11;29.10;84.90
10270;DHT22;5180;50.832;5.390;2022-07-22T09:47:41;29.30;85.70
10270;DHT22;5180;50.832;5.390;2022-07-22T09:52:52;29.60;85.70
10270;DHT22;5180;50.832;5.390;2022-07-22T09:55:20;29.80;85.70
10270;DHT22;5180;50.832;5.390;2022-07-22T09:57:46;29.70;84.90
10270;DHT22;5180;50.832;5.390;2022-07-22T10:00:14;29.60;85.00
10270;DHT22;5180;50.832;5.390;2022-07-22T10:02:57;29.80;84.80
10270;DHT22;5180;50.832;5.390;2022-07-22T10:05:26;30.10;84.70
10270;DHT22;5180;50.832;5.390;2022-07-22T10:07:52;30.40;84.20
10270;DHT22;5180;50.832;5.390;2022-07-22T10:10:21;30.80;84.00
10270;DHT22;5180;50.832;5.390;2022-07-22T10:12:51;31.10;82.40
10270;DHT22;5180;50.832;5.390;2022-07-22T10:15:17;31.00;81.60
10270;DHT22;5180;50.832;5.390;2022-07-22T10:17:46;31.30;81.90
10270;DHT22;5180;50.832;5.390;2022-07-22T10:20:20;31.50;80.90
10270;DHT22;5180;50.832;5.390;2022-07-22T10:22:52;31.30;80.00
10270;DHT22;5180;50.832;5.390;2022-07-22T10:25:20;30.80;79.80
10270;DHT22;5180;50.832;5.390;2022-07-22T10:30:23;30.60;79.90
10270;DHT22;5180;50.832;5.390;2022-07-22T10:33:21;30.60;80.10
10270;DHT22;5180;50.832;5.390;2022-07-22T10:35:57;30.80;79.70
10270;DHT22;5180;50.832;5.390;2022-07-22T10:38:24;30.80;79.80
10270;DHT22;5180;50.832;5.390;2022-07-22T10:40:53;31.00;80.00
10270;DHT22;5180;50.832;5.390;2022-07-22T10:43:26;31.00;79.30
10270;DHT22;5180;50.832;5.390;2022-07-22T10:46:00;30.80;79.10
10270;DHT22;5180;50.832;5.390;2022-07-22T10:58:50;30.00;77.70
10270;DHT22;5180;50.832;5.390;2022-07-22T11:01:18;29.70;77.70
10270;DHT22;5180;50.832;5.390;2022-07-22T11:03:46;29.60;77.40
10270;DHT22;5180;50.832;5.390;2022-07-22T11:08:52;29.80;77.70
10270;DHT22;5180;50.832;5.390;2022-07-22T11:11:18;30.00;77.30
10270;DHT22;5180;50.832;5.390;2022-07-22T11:13:44;30.00;77.80
10270;DHT22;5180;50.832;5.390;2022-07-22T11:18:51;30.10;77.50
10270;DHT22;5180;50.832;5.390;2022-07-22T11:21:22;30.20;77.20
10270;DHT22;5180;50.832;5.390;2022-07-22T11:23:50;30.40;77.20
10270;DHT22;5180;50.832;5.390;2022-07-22T11:26:18;30.50;76.80
10270;DHT22;5180;50.832;5.390;2022-07-22T11:28:44;30.90;76.60
10270;DHT22;5180;50.832;5.390;2022-07-22T11:31:16;31.00;75.90
10270;DHT22;5180;50.832;5.390;2022-07-22T11:33:43;30.60;75.70
10270;DHT22;5180;50.832;5.390;2022-07-22T11:36:09;30.50;75.80
10270;DHT22;5180;50.832;5.390;2022-07-22T11:38:49;30.30;76.10
10270;DHT22;5180;50.832;5.390;2022-07-22T11:41:18;30.50;75.80
10270;DHT22;5180;50.832;5.390;2022-07-22T11:43:46;30.30;75.30
10270;DHT22;5180;50.832;5.390;2022-07-22T11:46:13;30.10;75.60
10270;DHT22;5180;50.832;5.390;2022-07-22T11:48:40;29.80;75.80
10270;DHT22;5180;50.832;5.390;2022-07-22T11:51:07;29.80;76.10
10270;DHT22;5180;50.832;5.390;2022-07-22T11:53:35;29.80;76.10
10270;DHT22;5180;50.832;5.390;2022-07-22T11:56:02;29.80;75.70
10270;DHT22;5180;50.832;5.390;2022-07-22T11:58:42;29.70;75.80
10270;DHT22;5180;50.832;5.390;2022-07-22T12:01:10;29.90;75.40
10270;DHT22;5180;50.832;5.390;2022-07-22T12:03:37;30.10;74.90
10270;DHT22;5180;50.832;5.390;2022-07-22T12:06:05;30.10;75.00
10270;DHT22;5180;50.832;5.390;2022-07-22T12:08:32;30.00;75.10
10270;DHT22;5180;50.832;5.390;2022-07-22T12:10:59;30.10;75.40
10270;DHT22;5180;50.832;5.390;2022-07-22T12:13:31;30.10;75.30
10270;DHT22;5180;50.832;5.390;2022-07-22T12:15:58;30.30;75.50
10270;DHT22;5180;50.832;5.390;2022-07-22T12:18:25;30.40;75.30
10270;DHT22;5180;50.832;5.390;2022-07-22T12:20:53;30.60;75.40
10270;DHT22;5180;50.832;5.390;2022-07-22T12:23:24;30.70;74.80
10270;DHT22;5180;50.832;5.390;2022-07-22T12:25:57;30.50;74.90
10270;DHT22;5180;50.832;5.390;2022-07-22T12:28:24;30.40;74.80
10270;DHT22;5180;50.832;5.390;2022-07-22T12:30:52;30.30;75.00
10270;DHT22;5180;50.832;5.390;2022-07-22T12:33:19;30.10;74.90
10270;DHT22;5180;50.832;5.390;2022-07-22T12:36:01;30.00;74.80
10270;DHT22;5180;50.832;5.390;2022-07-22T12:38:27;30.00;75.20
10270;DHT22;5180;50.832;5.390;2022-07-22T12:40:54;30.00;75.70
10270;DHT22;5180;50.832;5.390;2022-07-22T12:43:24;30.10;76.40
10270;DHT22;5180;50.832;5.390;2022-07-22T12:45:50;30.50;76.00
10270;DHT22;5180;50.832;5.390;2022-07-22T12:48:16;30.80;75.80
10270;DHT22;5180;50.832;5.390;2022-07-22T12:53:19;31.00;74.70
10270;DHT22;5180;50.832;5.390;2022-07-22T12:55:53;30.70;74.80
10270;DHT22;5180;50.832;5.390;2022-07-22T12:58:27;30.60;74.50
10270;DHT22;5180;50.832;5.390;2022-07-22T13:00:56;30.50;74.70
10270;DHT22;5180;50.832;5.390;2022-07-22T13:03:22;30.50;74.80
10270;DHT22;5180;50.832;5.390;2022-07-22T13:05:53;30.60;75.10
10270;DHT22;5180;50.832;5.390;2022-07-22T13:08:19;30.40;74.90
10270;DHT22;5180;50.832;5.390;2022-07-22T13:10:44;30.30;75.10
10270;DHT22;5180;50.832;5.390;2022-07-22T13:13:10;30.20;75.00
10270;DHT22;5180;50.832;5.390;2022-07-22T13:15:37;30.30;74.90
10270;DHT22;5180;50.832;5.390;2022-07-22T13:18:03;30.30;74.40
10270;DHT22;5180;50.832;5.390;2022-07-22T13:20:29;30.30;74.60
10270;DHT22;5180;50.832;5.390;2022-07-22T13:22:55;30.10;74.70
10270;DHT22;5180;50.832;5.390;2022-07-22T13:25:21;30.20;74.90
10270;DHT22;5180;50.832;5.390;2022-07-22T13:27:46;30.30;74.50
10270;DHT22;5180;50.832;5.390;2022-07-22T13:30:13;30.30;74.40
10270;DHT22;5180;50.832;5.390;2022-07-22T13:32:38;30.60;74.60
10270;DHT22;5180;50.832;5.390;2022-07-22T13:35:04;30.70;73.90
10270;DHT22;5180;50.832;5.390;2022-07-22T13:37:30;30.30;74.40
10270;DHT22;5180;50.832;5.390;2022-07-22T13:39:56;30.50;74.90
10270;DHT22;5180;50.832;5.390;2022-07-22T13:42:21;30.60;74.70
10270;DHT22;5180;50.832;5.390;2022-07-22T13:44:48;30.70;74.90
10270;DHT22;5180;50.832;5.390;2022-07-22T13:47:14;30.60;74.10
10270;DHT22;5180;50.832;5.390;2022-07-22T13:49:40;30.40;74.10
10270;DHT22;5180;50.832;5.390;2022-07-22T13:52:06;30.50;74.20
10270;DHT22;5180;50.832;5.390;2022-07-22T13:54:33;30.70;74.20
10270;DHT22;5180;50.832;5.390;2022-07-22T13:57:00;31.10;73.70
10270;DHT22;5180;50.832;5.390;2022-07-22T13:59:26;31.30;73.60
10270;DHT22;5180;50.832;5.390;2022-07-22T14:01:52;31.50;73.70
10270;DHT22;5180;50.832;5.390;2022-07-22T14:04:18;31.40;73.60
10270;DHT22;5180;50.832;5.390;2022-07-22T14:06:44;31.00;73.00
10270;DHT22;5180;50.832;5.390;2022-07-22T14:09:09;30.60;73.80
10270;DHT22;5180;50.832;5.390;2022-07-22T14:11:35;30.30;73.30
10270;DHT22;5180;50.832;5.390;2022-07-22T14:14:01;30.30;73.60
10270;DHT22;5180;50.832;5.390;2022-07-22T14:16:26;30.30;73.30
10270;DHT22;5180;50.832;5.390;2022-07-22T14:19:06;30.20;73.00
10270;DHT22;5180;50.832;5.390;2022-07-22T14:21:33;30.30;73.10
10270;DHT22;5180;50.832;5.390;2022-07-22T14:24:00;30.50;74.00
10270;DHT22;5180;50.832;5.390;2022-07-22T14:26:26;30.60;73.20
10270;DHT22;5180;50.832;5.390;2022-07-22T14:28:51;30.70;73.00
10270;DHT22;5180;50.832;5.390;2022-07-22T14:31:17;30.50;72.90
10270;DHT22;5180;50.832;5.390;2022-07-22T14:33:43;30.20;73.10
10270;DHT22;5180;50.832;5.390;2022-07-22T14:36:09;30.20;72.80
10270;DHT22;5180;50.832;5.390;2022-07-22T14:38:34;30.00;72.80
10270;DHT22;5180;50.832;5.390;2022-07-22T14:41:00;29.90;73.00
10270;DHT22;5180;50.832;5.390;2022-07-22T14:43:26;29.90;73.60
10270;DHT22;5180;50.832;5.390;2022-07-22T14:45:52;29.90;73.70
10270;DHT22;5180;50.832;5.390;2022-07-22T14:48:18;30.10;73.90
10270;DHT22;5180;50.832;5.390;2022-07-22T14:50:43;30.40;74.30
10270;DHT22;5180;50.832;5.390;2022-07-22T14:53:10;30.50;74.20
10270;DHT22;5180;50.832;5.390;2022-07-22T14:55:35;30.70;73.80
10270;DHT22;5180;50.832;5.390;2022-07-22T14:58:01;30.90;73.80
10270;DHT22;5180;50.832;5.390;2022-07-22T15:00:27;31.00;73.20
10270;DHT22;5180;50.832;5.390;2022-07-22T15:02:52;30.90;72.60
10270;DHT22;5180;50.832;5.390;2022-07-22T15:05:18;30.80;72.80
10270;DHT22;5180;50.832;5.390;2022-07-22T15:07:43;31.00;72.80
10270;DHT22;5180;50.832;5.390;2022-07-22T15:10:09;31.10;72.90
10270;DHT22;5180;50.832;5.390;2022-07-22T15:12:36;31.40;73.00
10270;DHT22;5180;50.832;5.390;2022-07-22T15:15:03;31.50;72.70
10270;DHT22;5180;50.832;5.390;2022-07-22T15:17:34;31.50;72.60
10270;DHT22;5180;50.832;5.390;2022-07-22T15:20:00;31.50;72.70
10270;DHT22;5180;50.832;5.390;2022-07-22T15:22:26;31.50;72.80
10270;DHT22;5180;50.832;5.390;2022-07-22T15:24:53;31.50;72.40
10270;DHT22;5180;50.832;5.390;2022-07-22T15:27:19;31.50;72.10
10270;DHT22;5180;50.832;5.390;2022-07-22T15:29:45;31.20;71.90
10270;DHT22;5180;50.832;5.390;2022-07-22T15:32:10;30.70;71.60
10270;DHT22;5180;50.832;5.390;2022-07-22T15:34:37;30.30;71.60
10270;DHT22;5180;50.832;5.390;2022-07-22T15:37:03;29.90;71.40
10270;DHT22;5180;50.832;5.390;2022-07-22T15:39:29;29.50;71.50
10270;DHT22;5180;50.832;5.390;2022-07-22T15:41:54;29.30;71.90
10270;DHT22;5180;50.832;5.390;2022-07-22T15:44:20;29.00;72.20
10270;DHT22;5180;50.832;5.390;2022-07-22T15:46:46;28.80;72.50
10270;DHT22;5180;50.832;5.390;2022-07-22T15:49:13;28.50;72.70
10270;DHT22;5180;50.832;5.390;2022-07-22T15:51:39;28.20;73.90
10270;DHT22;5180;50.832;5.390;2022-07-22T15:54:05;28.10;74.10
10270;DHT22;5180;50.832;5.390;2022-07-22T15:56:30;28.10;73.70
10270;DHT22;5180;50.832;5.390;2022-07-22T15:58:56;28.10;73.70
10270;DHT22;5180;50.832;5.390;2022-07-22T16:01:40;28.10;73.80
10270;DHT22;5180;50.832;5.390;2022-07-22T16:04:06;28.10;73.80
10270;DHT22;5180;50.832;5.390;2022-07-22T16:06:32;28.20;73.90
10270;DHT22;5180;50.832;5.390;2022-07-22T16:08:57;28.10;74.50